Time;durP1;ratioP1;P1;durP2;ratioP2;P2;SDS_P1;SDS_P2;PMS_P1;PMS_P2;Temp;Humidity;BMP_temperature;BMP_pressure;BME280_temperature;BME280_humidity;BME280_pressure;Samples;Min_cycle;Max_cycle;Signal;HPM_P1;HPM_P2
2024/01/03 00:00:18;;;;;;;7.97;0.70;;;8.60;99.90;;;;;;5073257;28;20044;-69
2024/01/03 00:02:48;;;;;;;6.15;0.50;;;9.10;99.90;;;;;;5090334;28;20070;-70
2024/01/03 00:05:14;;;;;;;5.82;0.32;;;9.30;99.90;;;;;;5091240;28;20354;-70
2024/01/03 00:07:41;;;;;;;5.57;0.43;;;9.00;99.90;;;;;;5089661;28;20587;-70
2024/01/03 00:10:42;;;;;;;9.98;0.57;;;9.20;99.90;;;;;;5091741;28;20040;-70
2024/01/03 00:13:30;;;;;;;6.50;0.50;;;8.80;99.90;;;;;;5086624;28;20048;-69
2024/01/03 00:16:03;;;;;;;9.43;0.95;;;8.10;99.90;;;;;;5076238;28;20032;-70
2024/01/03 00:18:35;;;;;;;7.65;0.60;;;8.10;99.90;;;;;;5095956;28;20039;-71
2024/01/03 00:21:01;;;;;;;9.02;0.77;;;8.10;99.90;;;;;;5074677;28;20039;-70
2024/01/03 00:23:38;;;;;;;12.32;1.13;;;8.90;99.90;;;;;;5073664;28;20043;-71
2024/01/03 00:26:06;;;;;;;9.52;0.73;;;9.00;99.90;;;;;;5092116;28;20052;-70
2024/01/03 00:28:33;;;;;;;10.05;0.93;;;8.70;99.90;;;;;;5090438;28;20085;-70
2024/01/03 00:30:59;;;;;;;8.57;1.08;;;8.30;99.90;;;;;;5072725;28;20083;-71
2024/01/03 00:33:25;;;;;;;10.95;1.08;;;8.20;99.90;;;;;;5074351;28;20055;-70
2024/01/03 00:35:51;;;;;;;9.73;0.60;;;8.70;99.90;;;;;;5076760;28;20036;-71
2024/01/03 00:38:18;;;;;;;8.65;0.85;;;8.40;99.90;;;;;;5077827;28;20487;-69
2024/01/03 00:40:54;;;;;;;7.32;0.60;;;8.20;99.90;;;;;;5095388;28;20043;-71
2024/01/03 00:43:20;;;;;;;6.07;0.52;;;8.90;99.90;;;;;;5077972;28;20041;-69
2024/01/03 00:45:48;;;;;;;8.40;0.70;;;8.80;99.90;;;;;;5095358;28;20147;-71
2024/01/03 00:48:18;;;;;;;9.20;1.27;;;8.20;99.90;;;;;;5095666;28;20052;-69
2024/01/03 00:50:44;;;;;;;13.32;0.80;;;8.10;99.90;;;;;;5095729;28;20055;-71
2024/01/03 00:53:12;;;;;;;8.07;0.60;;;8.70;99.90;;;;;;5095630;28;20063;-69
2024/01/03 00:55:41;;;;;;;12.90;1.25;;;8.10;99.90;;;;;;5095419;27;20096;-70
2024/01/03 00:58:08;;;;;;;15.43;1.08;;;8.80;99.90;;;;;;5061035;28;20043;-68
2024/01/03 01:00:34;;;;;;;5.65;0.50;;;8.60;99.90;;;;;;5078892;28;20595;-71
2024/01/03 01:03:00;;;;;;;10.95;0.85;;;7.90;99.90;;;;;;5079100;28;20116;-70
2024/01/03 01:05:25;;;;;;;8.02;0.75;;;8.00;99.90;;;;;;5095580;28;20100;-69
2024/01/03 01:07:51;;;;;;;10.82;0.65;;;8.10;99.90;;;;;;5060965;28;20401;-69
2024/01/03 01:10:17;;;;;;;12.70;0.90;;;8.60;99.90;;;;;;5077889;28;20054;-70
2024/01/03 01:12:43;;;;;;;11.55;1.05;;;8.70;99.90;;;;;;5076974;28;20040;-70
2024/01/03 01:15:09;;;;;;;11.13;1.00;;;8.40;99.90;;;;;;5110229;27;20525;-70
2024/01/03 01:17:34;;;;;;;10.20;0.93;;;7.80;99.90;;;;;;5059906;28;20641;-71
2024/01/03 01:20:00;;;;;;;9.65;0.70;;;8.80;99.90;;;;;;5076894;28;20096;-70
2024/01/03 01:22:26;;;;;;;10.20;0.98;;;8.60;99.90;;;;;;5094240;28;20049;-70
2024/01/03 01:24:52;;;;;;;13.48;0.95;;;8.80;99.90;;;;;;5076866;28;20048;-70
2024/01/03 01:27:18;;;;;;;8.98;0.80;;;8.70;99.90;;;;;;5076032;28;20049;-70
2024/01/03 01:29:43;;;;;;;6.47;0.82;;;8.80;99.90;;;;;;5075795;28;20121;-70
2024/01/03 01:32:09;;;;;;;10.32;0.93;;;8.20;99.90;;;;;;5058609;28;20104;-71
2024/01/03 01:34:35;;;;;;;6.43;0.65;;;8.70;99.90;;;;;;5058276;28;20044;-70
2024/01/03 01:37:00;;;;;;;12.48;0.73;;;8.10;99.90;;;;;;5092018;28;20031;-68
2024/01/03 01:39:26;;;;;;;9.65;0.73;;;8.80;99.90;;;;;;5075362;28;20520;-68
2024/01/03 01:41:52;;;;;;;10.35;0.70;;;8.70;99.90;;;;;;5074244;28;20083;-70
2024/01/03 01:44:18;;;;;;;12.30;0.95;;;8.20;99.90;;;;;;5090262;28;20071;-69
2024/01/03 01:46:45;;;;;;;7.93;0.73;;;8.70;99.90;;;;;;5105911;27;20035;-71
2024/01/03 01:49:13;;;;;;;10.60;0.73;;;7.80;99.90;;;;;;5107537;27;20055;-70
2024/01/03 01:51:39;;;;;;;11.43;1.00;;;8.30;99.90;;;;;;5057126;28;20036;-70
2024/01/03 01:54:04;;;;;;;10.18;1.00;;;8.40;99.90;;;;;;5092134;28;20044;-71
2024/01/03 01:56:32;;;;;;;18.27;1.45;;;8.70;99.90;;;;;;5126160;27;20061;-70
2024/01/03 01:58:59;;;;;;;9.55;1.23;;;7.90;99.90;;;;;;5092423;28;20129;-71
2024/01/03 02:01:26;;;;;;;15.73;1.20;;;8.50;99.90;;;;;;5057792;28;20762;-69
2024/01/03 02:03:53;;;;;;;12.02;0.80;;;8.10;99.90;;;;;;5059393;28;20054;-70
2024/01/03 02:06:20;;;;;;;8.93;0.70;;;8.10;99.90;;;;;;5075739;28;20071;-70
2024/01/03 02:08:46;;;;;;;10.30;0.68;;;8.80;99.90;;;;;;5057744;28;20059;-70
2024/01/03 02:11:12;;;;;;;11.52;1.17;;;8.70;99.90;;;;;;5076142;28;20039;-69
2024/01/03 02:13:38;;;;;;;1.55;0.00;;;7.90;99.90;;;;;;5093169;28;20031;-70
2024/01/03 02:16:04;;;;;;;14.88;0.98;;;8.00;99.90;;;;;;5059790;28;20085;-69
2024/01/03 02:18:30;;;;;;;17.65;1.27;;;8.20;99.90;;;;;;5076750;28;20646;-69
2024/01/03 02:20:57;;;;;;;11.95;1.27;;;8.20;99.90;;;;;;5059619;28;20051;-69
2024/01/03 02:23:23;;;;;;;12.13;1.42;;;8.00;99.90;;;;;;5076510;28;20100;-70
2024/01/03 02:25:49;;;;;;;11.05;0.65;;;8.80;99.90;;;;;;5076896;28;20050;-69
2024/01/03 02:28:16;;;;;;;11.18;0.77;;;8.10;99.90;;;;;;5076301;28;20055;-69
2024/01/03 02:30:44;;;;;;;13.85;1.48;;;8.70;99.90;;;;;;5060180;28;20865;-71
2024/01/03 02:33:11;;;;;;;14.05;1.30;;;8.80;99.90;;;;;;5093414;28;20126;-71
2024/01/03 02:35:37;;;;;;;13.60;1.48;;;8.70;99.90;;;;;;5077224;28;20043;-70
2024/01/03 02:38:03;;;;;;;18.45;1.60;;;7.90;99.90;;;;;;5076249;28;20048;-70
2024/01/03 02:40:29;;;;;;;10.32;0.85;;;8.80;99.90;;;;;;5076603;28;20051;-70
2024/01/03 02:42:55;;;;;;;10.95;1.38;;;8.50;99.90;;;;;;5092288;28;20087;-70
2024/01/03 02:45:20;;;;;;;15.63;1.55;;;8.60;99.90;;;;;;5059208;28;20036;-69
2024/01/03 02:47:46;;;;;;;17.75;1.20;;;8.40;99.90;;;;;;5075862;28;20074;-69
2024/01/03 02:50:12;;;;;;;10.68;1.27;;;8.70;99.90;;;;;;5076194;28;20052;-68
2024/01/03 02:52:38;;;;;;;21.75;2.45;;;8.00;99.90;;;;;;5092515;28;20039;-69
2024/01/03 02:55:04;;;;;;;13.18;1.33;;;9.00;99.90;;;;;;5075609;28;20032;-70
2024/01/03 02:57:30;;;;;;;20.30;1.80;;;8.80;99.90;;;;;;5091836;28;20059;-69
2024/01/03 02:59:56;;;;;;;13.50;1.25;;;8.70;99.90;;;;;;5078985;28;20043;-70
2024/01/03 03:02:22;;;;;;;21.35;1.88;;;8.00;99.90;;;;;;5091783;28;20201;-69
2024/01/03 03:04:48;;;;;;;16.52;1.52;;;9.00;99.90;;;;;;5075332;28;20097;-70
2024/01/03 03:07:13;;;;;;;15.27;1.60;;;8.20;99.90;;;;;;5074196;28;20101;-69
2024/01/03 03:09:40;;;;;;;17.58;1.58;;;7.60;99.90;;;;;;5074473;28;20445;-69
2024/01/03 03:12:06;;;;;;;18.75;1.80;;;9.00;99.90;;;;;;5073360;28;20531;-70
2024/01/03 03:14:32;;;;;;;10.90;1.05;;;7.80;99.90;;;;;;5077593;28;20271;-69
2024/01/03 03:17:00;;;;;;;17.70;1.33;;;7.70;99.90;;;;;;5107238;27;20036;-69
2024/01/03 03:19:26;;;;;;;15.90;1.33;;;8.20;99.90;;;;;;5090643;28;20103;-71
2024/01/03 03:21:52;;;;;;;14.25;1.15;;;7.70;99.90;;;;;;5073405;28;20051;-71
2024/01/03 03:24:18;;;;;;;14.05;1.38;;;8.20;99.90;;;;;;5090412;28;20039;-69
2024/01/03 03:26:44;;;;;;;11.18;1.02;;;8.20;99.90;;;;;;5056105;28;20082;-69
2024/01/03 03:29:09;;;;;;;15.73;1.55;;;8.50;99.90;;;;;;5090393;28;20744;-70
2024/01/03 03:31:35;;;;;;;12.98;1.70;;;8.00;99.90;;;;;;5058314;28;20035;-70
2024/01/03 03:34:01;;;;;;;20.73;1.50;;;8.50;99.90;;;;;;5077660;28;20031;-69
2024/01/03 03:36:26;;;;;;;13.25;1.40;;;8.70;99.90;;;;;;5041608;28;20078;-70
2024/01/03 03:38:52;;;;;;;12.07;0.77;;;8.60;99.90;;;;;;5073781;28;20062;-70
2024/01/03 03:41:19;;;;;;;9.25;0.90;;;8.90;99.90;;;;;;5055618;28;20035;-70
2024/01/03 03:43:45;;;;;;;11.02;1.15;;;8.00;99.90;;;;;;5073899;28;20044;-69
2024/01/03 03:46:12;;;;;;;9.55;0.68;;;8.80;99.90;;;;;;5091811;28;20538;-70
2024/01/03 03:48:38;;;;;;;16.02;1.10;;;8.80;99.90;;;;;;5074238;28;20055;-70
2024/01/03 03:51:04;;;;;;;12.80;0.73;;;8.00;99.90;;;;;;5056226;28;20108;-71
2024/01/03 03:53:30;;;;;;;10.73;0.90;;;8.40;99.90;;;;;;5060638;28;20043;-70
2024/01/03 03:55:56;;;;;;;4.72;0.40;;;8.30;99.90;;;;;;5091103;28;20612;-71
2024/01/03 03:58:21;;;;;;;7.13;0.63;;;8.30;99.90;;;;;;5074145;28;20082;-70
2024/01/03 04:00:50;;;;;;;11.43;1.20;;;8.10;99.90;;;;;;5061517;28;20035;-70
2024/01/03 04:03:16;;;;;;;9.75;0.68;;;8.30;99.90;;;;;;5056143;28;20104;-73
2024/01/03 04:05:41;;;;;;;9.40;1.35;;;8.20;99.90;;;;;;5073150;28;20619;-70
2024/01/03 04:08:07;;;;;;;10.10;1.15;;;8.20;99.90;;;;;;5090530;28;20046;-70
2024/01/03 04:10:33;;;;;;;10.02;1.35;;;8.30;99.90;;;;;;5073476;28;20052;-72
2024/01/03 04:12:59;;;;;;;10.43;1.00;;;8.30;99.90;;;;;;5091239;28;20791;-72
2024/01/03 04:15:25;;;;;;;8.65;0.70;;;8.60;99.90;;;;;;5092108;28;20039;-70
2024/01/03 04:17:52;;;;;;;8.02;0.82;;;8.20;99.90;;;;;;5057398;28;20054;-71
2024/01/03 04:20:18;;;;;;;14.15;1.35;;;8.40;99.90;;;;;;5074241;28;20047;-71
2024/01/03 04:22:45;;;;;;;8.40;1.00;;;8.40;99.90;;;;;;5090904;28;20051;-71
2024/01/03 04:25:11;;;;;;;14.30;1.35;;;8.20;99.90;;;;;;5125903;27;20040;-73
2024/01/03 04:27:37;;;;;;;15.23;1.52;;;8.30;99.90;;;;;;5093286;28;20051;-71
2024/01/03 04:30:04;;;;;;;11.77;0.85;;;8.30;99.90;;;;;;5090851;28;20092;-71
2024/01/03 04:32:33;;;;;;;8.05;0.70;;;8.40;99.90;;;;;;5077216;28;20074;-71
2024/01/03 04:34:59;;;;;;;8.27;0.60;;;8.70;99.90;;;;;;5073879;28;20452;-71
2024/01/03 04:37:28;;;;;;;13.10;0.60;;;8.50;99.90;;;;;;5073961;28;20802;-71
2024/01/03 04:39:54;;;;;;;10.05;0.95;;;8.70;99.90;;;;;;5090443;28;20043;-71
2024/01/03 04:42:20;;;;;;;10.32;1.10;;;8.60;99.90;;;;;;5077388;28;20075;-71
2024/01/03 04:44:45;;;;;;;6.55;0.50;;;8.50;99.90;;;;;;5073854;28;20048;-71
2024/01/03 04:47:11;;;;;;;6.75;0.65;;;8.70;99.90;;;;;;5072510;28;20122;-71
2024/01/03 04:49:37;;;;;;;8.23;1.00;;;8.50;99.90;;;;;;5071148;28;20063;-70
2024/01/03 04:52:03;;;;;;;7.05;0.50;;;8.40;99.90;;;;;;5076668;28;20645;-71
2024/01/03 04:54:29;;;;;;;4.85;0.30;;;8.50;99.90;;;;;;5056376;28;20035;-71
2024/01/03 04:56:55;;;;;;;4.18;0.38;;;8.50;99.90;;;;;;5090020;28;20740;-70
2024/01/03 04:59:20;;;;;;;5.35;0.50;;;8.40;99.90;;;;;;5056248;28;20050;-70
2024/01/03 05:01:46;;;;;;;6.28;0.45;;;8.70;99.90;;;;;;5073332;28;20558;-70
2024/01/03 05:04:12;;;;;;;5.75;0.50;;;8.60;99.90;;;;;;5091345;28;20039;-70
2024/01/03 05:06:38;;;;;;;10.93;0.63;;;8.60;99.90;;;;;;5055726;28;20298;-72
2024/01/03 05:09:04;;;;;;;3.55;0.50;;;8.80;99.90;;;;;;5073101;28;20163;-70
2024/01/03 05:11:30;;;;;;;7.72;0.63;;;8.80;99.90;;;;;;5091296;28;20166;-71
2024/01/03 05:13:56;;;;;;;6.38;0.50;;;8.40;99.90;;;;;;5078978;28;20035;-69
2024/01/03 05:16:22;;;;;;;9.40;0.80;;;8.40;99.90;;;;;;5055048;28;20472;-68
2024/01/03 05:18:48;;;;;;;9.88;1.27;;;8.80;99.90;;;;;;5072906;28;20043;-69
2024/01/03 05:21:14;;;;;;;6.05;0.73;;;8.40;99.90;;;;;;5073755;28;20050;-68
2024/01/03 05:23:40;;;;;;;6.45;0.55;;;8.60;99.90;;;;;;5076943;28;20126;-68
2024/01/03 05:26:06;;;;;;;7.93;0.70;;;8.80;99.90;;;;;;5077669;28;20732;-68
2024/01/03 05:28:32;;;;;;;7.35;0.60;;;8.80;99.90;;;;;;5060073;28;20051;-69
2024/01/03 05:30:58;;;;;;;7.90;0.70;;;8.80;99.90;;;;;;5077620;28;20408;-68
2024/01/03 05:33:24;;;;;;;11.02;0.68;;;8.60;99.90;;;;;;5077189;28;20138;-69
2024/01/03 05:35:50;;;;;;;5.40;0.40;;;8.90;99.90;;;;;;5077126;28;20039;-68
2024/01/03 05:38:16;;;;;;;7.07;0.88;;;8.50;99.90;;;;;;5094679;28;20057;-68
2024/01/03 05:40:42;;;;;;;9.35;0.85;;;8.50;99.90;;;;;;5076605;28;20096;-67
2024/01/03 05:43:08;;;;;;;9.38;0.73;;;8.80;99.90;;;;;;5093899;28;20123;-68
2024/01/03 05:45:34;;;;;;;8.07;0.80;;;8.60;99.90;;;;;;5077838;28;20181;-67
2024/01/03 05:48:00;;;;;;;10.98;1.05;;;8.90;99.90;;;;;;5077154;28;20039;-67
2024/01/03 05:50:26;;;;;;;5.75;0.50;;;9.10;99.90;;;;;;5076782;28;20047;-67
2024/01/03 05:52:51;;;;;;;8.73;0.80;;;8.90;99.90;;;;;;5076175;28;20040;-68
2024/01/03 05:55:17;;;;;;;12.18;1.27;;;9.20;99.90;;;;;;5076508;28;20039;-67
2024/01/03 05:57:43;;;;;;;10.68;0.70;;;9.30;99.90;;;;;;5093431;28;20932;-67
2024/01/03 06:00:10;;;;;;;11.32;1.20;;;8.90;99.90;;;;;;5093673;28;20135;-67
2024/01/03 06:02:36;;;;;;;9.32;1.10;;;9.20;99.90;;;;;;5076537;28;20047;-68
2024/01/03 06:05:02;;;;;;;4.57;0.60;;;9.10;99.90;;;;;;5091576;28;20791;-68
2024/01/03 06:07:28;;;;;;;8.02;0.70;;;9.10;99.90;;;;;;5075441;28;20287;-67
2024/01/03 06:09:55;;;;;;;10.57;0.80;;;9.20;99.90;;;;;;5074747;28;20521;-68
2024/01/03 06:12:21;;;;;;;11.30;0.70;;;9.20;99.90;;;;;;5075917;28;20049;-67
2024/01/03 06:14:46;;;;;;;7.72;0.65;;;9.10;99.90;;;;;;5091620;28;20035;-67
2024/01/03 06:17:12;;;;;;;9.85;0.70;;;9.10;99.90;;;;;;5074216;28;20062;-66
2024/01/03 06:19:38;;;;;;;6.35;0.55;;;9.00;99.90;;;;;;5090788;28;20695;-66
2024/01/03 06:22:04;;;;;;;6.32;0.73;;;8.90;99.90;;;;;;5073696;28;20855;-67
2024/01/03 06:24:29;;;;;;;6.82;0.70;;;9.00;99.90;;;;;;5091776;28;20048;-69
2024/01/03 06:26:55;;;;;;;7.15;0.73;;;8.40;99.90;;;;;;5076270;28;20043;-71
2024/01/03 06:29:21;;;;;;;8.23;0.85;;;8.50;99.90;;;;;;5094634;28;20965;-72
2024/01/03 06:31:46;;;;;;;7.35;0.82;;;8.80;99.90;;;;;;5094543;28;20035;-71
2024/01/03 06:34:12;;;;;;;10.45;0.70;;;9.10;99.90;;;;;;5076955;28;20036;-72
2024/01/03 06:36:38;;;;;;;10.15;0.80;;;8.40;99.90;;;;;;5075536;28;20047;-69
2024/01/03 06:39:04;;;;;;;5.07;0.40;;;9.10;99.90;;;;;;5093326;28;20035;-70
2024/01/03 06:41:29;;;;;;;7.53;0.70;;;8.40;99.90;;;;;;5074721;28;20535;-71
2024/01/03 06:43:55;;;;;;;15.48;1.02;;;8.60;99.90;;;;;;5074231;28;20055;-71
2024/01/03 06:46:25;;;;;;;8.02;0.85;;;8.20;99.90;;;;;;5074233;28;20044;-71
2024/01/03 06:48:51;;;;;;;14.80;1.10;;;8.40;99.90;;;;;;5089387;28;20094;-68
2024/01/03 06:51:20;;;;;;;17.65;2.00;;;9.10;99.90;;;;;;5073397;28;20126;-70
2024/01/03 06:53:46;;;;;;;22.02;2.22;;;8.50;99.90;;;;;;5090300;28;20274;-70
2024/01/03 06:56:11;;;;;;;32.70;3.92;;;9.10;99.90;;;;;;5091044;28;20036;-70
2024/01/03 06:58:37;;;;;;;32.70;3.67;;;9.30;99.90;;;;;;5090903;28;20636;-70
2024/01/03 07:01:03;;;;;;;21.92;2.63;;;9.20;99.90;;;;;;5089860;28;20092;-70
2024/01/03 07:03:29;;;;;;;20.33;1.95;;;8.50;99.90;;;;;;5089793;28;20066;-71
2024/01/03 07:05:55;;;;;;;19.95;2.75;;;9.30;99.90;;;;;;5089183;28;20043;-71
2024/01/03 07:08:21;;;;;;;19.55;1.98;;;9.20;99.90;;;;;;5090744;28;20043;-70
2024/01/03 07:10:47;;;;;;;20.42;1.90;;;8.60;99.90;;;;;;5090503;28;20039;-72
2024/01/03 07:13:12;;;;;;;14.43;1.48;;;9.30;99.90;;;;;;5090625;28;20050;-71
2024/01/03 07:15:38;;;;;;;19.02;1.70;;;9.50;99.90;;;;;;5073675;28;20039;-69
2024/01/03 07:18:04;;;;;;;21.98;2.55;;;9.40;99.90;;;;;;5056038;28;20059;-68
2024/01/03 07:20:30;;;;;;;25.20;2.33;;;9.20;99.90;;;;;;5073572;28;20490;-71
2024/01/03 07:22:56;;;;;;;21.27;2.28;;;8.70;99.90;;;;;;5073354;28;20192;-71
2024/01/03 07:25:22;;;;;;;26.17;2.75;;;8.50;99.90;;;;;;5073311;28;20369;-70
2024/01/03 07:27:48;;;;;;;36.50;3.13;;;9.30;99.90;;;;;;5090212;28;20044;-70
2024/01/03 07:30:14;;;;;;;30.83;3.28;;;9.30;99.90;;;;;;5056092;28;20100;-69
2024/01/03 07:32:39;;;;;;;27.45;3.47;;;9.50;99.90;;;;;;5090123;28;20039;-70
2024/01/03 07:35:06;;;;;;;28.98;2.95;;;8.60;99.90;;;;;;5077192;28;20116;-70
2024/01/03 07:37:33;;;;;;;26.65;3.25;;;9.20;99.90;;;;;;5078114;28;20383;-70
2024/01/03 07:39:58;;;;;;;21.45;2.60;;;8.80;99.90;;;;;;5071972;28;20052;-70
2024/01/03 07:42:24;;;;;;;29.70;4.18;;;8.90;99.90;;;;;;5089720;28;20086;-71
2024/01/03 07:44:50;;;;;;;31.70;3.45;;;9.50;99.90;;;;;;5088378;28;20047;-69
2024/01/03 07:47:15;;;;;;;26.95;3.13;;;9.10;99.90;;;;;;5054469;28;20043;-70
2024/01/03 07:49:42;;;;;;;20.70;2.20;;;8.70;99.90;;;;;;5089046;28;20051;-70
2024/01/03 07:52:08;;;;;;;21.35;2.15;;;9.10;99.90;;;;;;5055304;28;20069;-70
2024/01/03 07:54:34;;;;;;;19.90;2.05;;;9.00;99.90;;;;;;5072880;28;20035;-70
2024/01/03 07:57:04;;;;;;;22.63;2.50;;;8.60;99.90;;;;;;5073019;28;20103;-69
2024/01/03 07:59:31;;;;;;;21.67;2.95;;;8.60;99.90;;;;;;5073180;28;20079;-69
2024/01/03 08:01:57;;;;;;;25.65;2.55;;;9.40;99.90;;;;;;5090618;28;20152;-69
2024/01/03 08:04:23;;;;;;;19.42;2.42;;;8.80;99.90;;;;;;5073306;28;20484;-70
2024/01/03 08:06:49;;;;;;;24.55;2.92;;;9.30;99.90;;;;;;5072378;28;20047;-70
2024/01/03 08:09:14;;;;;;;27.75;3.22;;;8.70;99.90;;;;;;5072703;28;20043;-70
2024/01/03 08:11:40;;;;;;;32.05;4.03;;;8.70;99.90;;;;;;5073529;28;20478;-70
2024/01/03 08:14:06;;;;;;;20.40;2.28;;;9.40;99.90;;;;;;5090278;28;20036;-69
2024/01/03 08:16:32;;;;;;;29.65;3.53;;;9.50;99.90;;;;;;5055668;28;20499;-70
2024/01/03 08:18:57;;;;;;;23.33;2.72;;;9.40;99.90;;;;;;5072710;28;20042;-69
2024/01/03 08:21:23;;;;;;;16.13;2.05;;;8.80;99.90;;;;;;5089489;28;20035;-70
2024/01/03 08:23:49;;;;;;;28.15;2.97;;;8.90;99.90;;;;;;5076485;28;20039;-71
2024/01/03 08:26:14;;;;;;;18.35;2.60;;;9.20;99.90;;;;;;5073114;28;20705;-71
2024/01/03 08:28:41;;;;;;;21.45;2.65;;;8.90;99.90;;;;;;5072816;28;20044;-70
2024/01/03 08:31:13;;;;;;;22.08;1.88;;;8.90;99.90;;;;;;5093600;28;20115;-70
2024/01/03 08:33:39;;;;;;;20.42;2.45;;;9.30;99.90;;;;;;5072032;28;20070;-70
2024/01/03 08:36:07;;;;;;;21.08;2.10;;;9.30;99.90;;;;;;5073202;28;20036;-70
2024/01/03 08:38:34;;;;;;;22.08;2.35;;;9.30;99.90;;;;;;5090336;28;20379;-70
2024/01/03 08:41:00;;;;;;;16.83;2.00;;;9.40;99.90;;;;;;5072643;28;20462;-70
2024/01/03 08:43:26;;;;;;;24.05;2.25;;;8.90;99.90;;;;;;5075048;28;20126;-70
2024/01/03 08:45:52;;;;;;;25.73;3.47;;;9.20;99.90;;;;;;5088831;28;20147;-71
2024/01/03 08:48:18;;;;;;;22.98;2.85;;;8.90;99.90;;;;;;5072377;28;20312;-70
2024/01/03 08:50:44;;;;;;;25.92;2.72;;;9.40;99.90;;;;;;5089097;28;20292;-70
2024/01/03 08:53:10;;;;;;;25.40;2.63;;;9.30;99.90;;;;;;5089597;28;20667;-70
2024/01/03 08:55:36;;;;;;;21.80;3.97;;;9.30;99.90;;;;;;5073471;28;20546;-71
2024/01/03 08:58:02;;;;;;;17.55;1.98;;;9.30;99.90;;;;;;5075785;28;20134;-70
2024/01/03 09:00:28;;;;;;;21.90;2.25;;;8.90;99.90;;;;;;5092772;28;20094;-70
2024/01/03 09:03:00;;;;;;;24.77;2.50;;;9.00;99.90;;;;;;5075923;28;20434;-70
2024/01/03 09:05:26;;;;;;;19.48;2.67;;;8.80;99.90;;;;;;5093049;28;20051;-71
2024/01/03 09:07:52;;;;;;;23.33;3.05;;;9.00;99.90;;;;;;5093057;28;20048;-70
2024/01/03 09:10:19;;;;;;;19.52;2.10;;;9.00;99.90;;;;;;5076248;28;20439;-70
2024/01/03 09:12:45;;;;;;;22.27;2.58;;;9.20;99.90;;;;;;5058285;28;20038;-70
2024/01/03 09:15:10;;;;;;;20.67;2.22;;;9.00;99.90;;;;;;5092904;28;20317;-70
2024/01/03 09:17:40;;;;;;;22.38;2.10;;;9.10;99.90;;;;;;5092756;28;20473;-70
2024/01/03 09:20:06;;;;;;;13.10;2.05;;;9.00;99.90;;;;;;5076854;28;20039;-70
2024/01/03 09:22:32;;;;;;;15.27;1.08;;;8.90;99.90;;;;;;5076316;28;20039;-70
2024/01/03 09:24:58;;;;;;;11.65;1.10;;;9.20;99.90;;;;;;5092186;28;20050;-70
2024/01/03 09:27:24;;;;;;;9.80;0.98;;;9.10;99.90;;;;;;5057536;28;20042;-70
2024/01/03 09:29:49;;;;;;;11.15;1.33;;;9.00;99.90;;;;;;5057898;28;20040;-69
2024/01/03 09:32:16;;;;;;;10.63;0.70;;;9.00;99.90;;;;;;5076062;28;20035;-70
2024/01/03 09:34:42;;;;;;;13.18;0.68;;;9.30;99.90;;;;;;5092447;28;20043;-70
2024/01/03 09:37:09;;;;;;;12.70;1.35;;;9.20;99.90;;;;;;5075302;28;20050;-70
2024/01/03 09:39:34;;;;;;;12.77;1.10;;;9.30;99.90;;;;;;5080855;28;20070;-71
2024/01/03 09:42:01;;;;;;;13.55;2.08;;;9.40;99.90;;;;;;5075264;28;20193;-70
2024/01/03 09:44:27;;;;;;;18.50;2.17;;;9.20;99.90;;;;;;5075899;28;20525;-70
2024/01/03 09:46:53;;;;;;;20.40;1.60;;;9.00;99.90;;;;;;5075472;28;21109;-69
2024/01/03 09:49:19;;;;;;;18.63;1.98;;;9.10;99.90;;;;;;5077655;28;20267;-71
2024/01/03 09:51:48;;;;;;;15.10;1.75;;;9.40;99.90;;;;;;5075948;28;20319;-70
2024/01/03 09:54:14;;;;;;;19.55;1.98;;;9.40;99.90;;;;;;5075487;28;20440;-70
2024/01/03 09:56:40;;;;;;;19.40;2.13;;;9.30;99.90;;;;;;5091723;28;20322;-70
2024/01/03 09:59:08;;;;;;;12.93;1.45;;;9.40;99.90;;;;;;5079569;28;20587;-70
2024/01/03 10:01:35;;;;;;;22.65;2.70;;;9.10;99.90;;;;;;5058244;28;20035;-70
2024/01/03 10:04:00;;;;;;;14.65;2.15;;;9.40;99.90;;;;;;5077993;28;20036;-70
2024/01/03 10:06:26;;;;;;;11.32;1.17;;;9.50;99.90;;;;;;5092702;28;20245;-70
2024/01/03 10:09:01;;;;;;;15.52;1.60;;;9.20;99.90;;;;;;5073411;28;20353;-70
2024/01/03 10:11:27;;;;;;;14.82;1.50;;;9.50;99.90;;;;;;5074447;28;20516;-70
2024/01/03 10:13:55;;;;;;;9.80;0.90;;;9.20;99.90;;;;;;5057474;28;20036;-70
2024/01/03 10:16:28;;;;;;;11.25;1.20;;;9.30;99.90;;;;;;5091643;28;20086;-71
2024/01/03 10:19:16;;;;;;;11.88;1.48;;;9.50;99.90;;;;;;5077690;28;20536;-70
2024/01/03 10:21:50;;;;;;;15.40;1.75;;;9.60;99.90;;;;;;5074731;28;20856;-71
2024/01/03 10:24:17;;;;;;;12.73;1.55;;;9.60;99.90;;;;;;5074339;28;20044;-70
2024/01/03 10:26:43;;;;;;;12.18;1.38;;;9.60;99.90;;;;;;5075057;28;20186;-69
2024/01/03 10:29:17;;;;;;;13.63;1.85;;;9.50;99.90;;;;;;5091010;28;20099;-69
2024/01/03 10:31:44;;;;;;;18.48;1.88;;;9.30;99.90;;;;;;5074385;28;20488;-70
2024/01/03 10:34:17;;;;;;;16.50;2.00;;;9.40;99.90;;;;;;5090664;28;20413;-70
2024/01/03 10:36:46;;;;;;;16.50;1.85;;;9.30;99.90;;;;;;5073636;28;20040;-70
2024/01/03 10:39:15;;;;;;;11.82;1.75;;;8.80;99.90;;;;;;5074861;28;20039;-70
2024/01/03 10:41:50;;;;;;;11.15;0.75;;;9.10;99.90;;;;;;5091060;28;20346;-70
2024/01/03 10:44:18;;;;;;;10.20;0.90;;;9.20;99.90;;;;;;5124373;27;20066;-70
2024/01/03 10:46:45;;;;;;;10.07;0.60;;;9.30;99.90;;;;;;5073935;28;20046;-72
2024/01/03 10:49:11;;;;;;;5.28;0.52;;;8.60;99.90;;;;;;5055695;28;20062;-69
2024/01/03 10:51:44;;;;;;;11.00;0.80;;;9.30;99.90;;;;;;5091110;28;20036;-69
2024/01/03 10:54:15;;;;;;;7.05;0.50;;;9.10;99.90;;;;;;5078764;28;20100;-70
2024/01/03 10:57:01;;;;;;;8.85;0.65;;;9.10;99.90;;;;;;5072919;28;20246;-70
2024/01/03 10:59:33;;;;;;;7.88;0.82;;;9.30;99.90;;;;;;5074070;28;20130;-70
2024/01/03 11:02:21;;;;;;;7.22;0.50;;;8.70;99.90;;;;;;5073741;28;20071;-70
2024/01/03 11:05:04;;;;;;;5.75;0.60;;;9.00;99.90;;;;;;5089625;28;20988;-71
2024/01/03 11:07:46;;;;;;;6.60;0.50;;;8.50;99.90;;;;;;5090702;28;20139;-70
2024/01/03 11:10:51;;;;;;;11.73;0.82;;;9.00;99.90;;;;;;5090549;28;20070;-70
2024/01/03 11:13:30;;;;;;;8.43;0.90;;;9.20;99.90;;;;;;5090944;28;20051;-70
2024/01/03 11:16:00;;;;;;;12.40;1.00;;;8.80;99.90;;;;;;5056939;28;20480;-71
2024/01/03 11:18:41;;;;;;;5.80;0.65;;;9.10;99.90;;;;;;5091080;27;20072;-70
2024/01/03 11:21:25;;;;;;;12.65;1.13;;;8.70;99.90;;;;;;5090655;28;20130;-69
2024/01/03 11:23:51;;;;;;;10.13;1.05;;;8.50;99.90;;;;;;5091046;28;20564;-70
2024/01/03 11:26:17;;;;;;;9.20;0.85;;;9.30;99.90;;;;;;5074381;28;20449;-69
2024/01/03 11:28:48;;;;;;;13.60;1.38;;;8.60;99.90;;;;;;5073259;28;20036;-69
2024/01/03 11:31:35;;;;;;;10.10;0.80;;;8.80;99.90;;;;;;5073430;28;20478;-69
2024/01/03 11:34:01;;;;;;;15.32;1.17;;;8.60;99.90;;;;;;5073957;28;20405;-69
2024/01/03 11:36:45;;;;;;;9.63;0.93;;;8.80;99.90;;;;;;5073988;28;20035;-70
2024/01/03 11:39:45;;;;;;;13.68;1.10;;;9.40;99.90;;;;;;5106801;27;20119;-69
2024/01/03 11:42:24;;;;;;;10.13;1.08;;;9.40;99.90;;;;;;5106700;27;20525;-69
2024/01/03 11:45:00;;;;;;;15.02;1.48;;;9.40;99.90;;;;;;5089049;28;20043;-71
2024/01/03 11:47:26;;;;;;;14.95;1.10;;;9.30;99.90;;;;;;5074566;28;20658;-72
2024/01/03 11:49:55;;;;;;;16.83;1.75;;;9.50;99.90;;;;;;5090076;28;20301;-71
2024/01/03 11:52:21;;;;;;;9.68;1.20;;;8.70;99.90;;;;;;5092886;27;20251;-71
2024/01/03 11:54:49;;;;;;;13.15;1.42;;;9.40;99.90;;;;;;5089890;28;20502;-71
2024/01/03 11:57:15;;;;;;;11.95;1.42;;;8.70;99.90;;;;;;5072761;28;20042;-71
2024/01/03 11:59:41;;;;;;;13.68;1.00;;;9.00;99.90;;;;;;5055765;28;20043;-71
2024/01/03 12:02:07;;;;;;;11.48;0.95;;;9.20;99.90;;;;;;5059588;28;20219;-69
2024/01/03 12:04:33;;;;;;;11.93;1.00;;;9.60;99.90;;;;;;5056283;28;20130;-70
2024/01/03 12:06:59;;;;;;;15.20;1.23;;;9.40;99.90;;;;;;5072622;28;20055;-69
2024/01/03 12:09:29;;;;;;;16.13;1.60;;;9.00;99.90;;;;;;5073721;28;20508;-69
2024/01/03 12:11:56;;;;;;;10.82;1.33;;;9.50;99.90;;;;;;5089351;28;20074;-70
2024/01/03 12:14:22;;;;;;;12.07;0.98;;;8.90;99.90;;;;;;5073224;28;20038;-70
2024/01/03 12:16:49;;;;;;;13.50;0.93;;;8.90;99.90;;;;;;5089644;28;20745;-70
2024/01/03 12:19:25;;;;;;;12.80;1.00;;;9.00;99.90;;;;;;5090291;28;20456;-70
2024/01/03 12:22:02;;;;;;;12.63;2.10;;;9.40;99.90;;;;;;5056383;28;20570;-71
2024/01/03 12:24:41;;;;;;;10.65;2.10;;;9.40;99.90;;;;;;5072838;28;20254;-70
2024/01/03 12:27:08;;;;;;;13.60;1.63;;;9.30;99.90;;;;;;5075874;28;20044;-71
2024/01/03 12:29:35;;;;;;;15.73;1.58;;;8.90;99.90;;;;;;5072643;28;20504;-71
2024/01/03 12:32:20;;;;;;;15.52;1.73;;;9.50;99.90;;;;;;5108603;27;20231;-70
2024/01/03 12:34:47;;;;;;;14.88;1.90;;;9.20;99.90;;;;;;5093042;28;20314;-69
2024/01/03 12:37:16;;;;;;;12.90;1.42;;;9.30;99.90;;;;;;5077059;28;20493;-71
2024/01/03 12:39:42;;;;;;;17.58;1.42;;;10.00;99.90;;;;;;5059492;28;20468;-71
2024/01/03 12:42:10;;;;;;;12.98;1.67;;;10.10;99.90;;;;;;5076445;28;20584;-70
2024/01/03 12:44:43;;;;;;;8.68;0.98;;;10.00;99.90;;;;;;5076808;28;20035;-71
2024/01/03 12:47:10;;;;;;;12.00;1.17;;;9.90;99.90;;;;;;5093208;28;20042;-70
2024/01/03 12:49:40;;;;;;;13.82;1.02;;;9.90;99.90;;;;;;5077002;28;20066;-70
2024/01/03 12:52:07;;;;;;;12.95;1.50;;;9.30;99.90;;;;;;5093669;28;20526;-71